Time;durP1;ratioP1;P1;durP2;ratioP2;P2;SDS_P1;SDS_P2;PMS_P1;PMS_P2;Temp;Humidity;BMP_temperature;BMP_pressure;BME280_temperature;BME280_humidity;BME280_pressure;Samples;Min_cycle;Max_cycle;Signal;HPM_P1;HPM_P2
2022/06/27 00:01:17;;;;;;;5.57;3.83;;;21.00;82.30;;;;;;4857452;29;20192;-64
2022/06/27 00:03:43;;;;;;;4.43;3.87;;;21.00;82.30;;;;;;4854335;29;20200;-64
2022/06/27 00:06:09;;;;;;;6.10;4.43;;;21.00;82.20;;;;;;4863943;29;20199;-64
2022/06/27 00:08:35;;;;;;;4.57;3.53;;;21.00;82.30;;;;;;4857382;29;20191;-64
2022/06/27 00:11:02;;;;;;;6.83;3.97;;;21.00;82.50;;;;;;4854417;29;20218;-64
2022/06/27 00:13:27;;;;;;;4.30;3.90;;;21.00;82.60;;;;;;4869982;29;20202;-64
2022/06/27 00:15:53;;;;;;;4.47;4.07;;;21.00;82.40;;;;;;4854597;29;20199;-64
2022/06/27 00:18:19;;;;;;;4.70;4.00;;;20.90;82.50;;;;;;4854019;29;20295;-64
2022/06/27 00:20:44;;;;;;;4.60;3.63;;;20.90;82.60;;;;;;4879145;29;20188;-64
2022/06/27 00:23:10;;;;;;;4.97;4.10;;;20.90;82.60;;;;;;4846962;29;20283;-64
2022/06/27 00:25:36;;;;;;;5.17;4.07;;;20.90;82.70;;;;;;4869494;29;20344;-64
2022/06/27 00:28:02;;;;;;;4.77;3.70;;;20.80;82.80;;;;;;4846804;29;20239;-64
2022/06/27 00:30:27;;;;;;;4.43;3.90;;;20.80;82.80;;;;;;4867140;29;20196;-64
2022/06/27 00:32:54;;;;;;;6.20;3.93;;;20.80;82.80;;;;;;4869407;29;20207;-64
2022/06/27 00:35:19;;;;;;;4.77;4.03;;;20.80;83.10;;;;;;4843664;29;20211;-64
2022/06/27 00:37:45;;;;;;;5.13;3.90;;;20.80;83.00;;;;;;4869607;29;20200;-64
2022/06/27 00:40:11;;;;;;;8.00;4.27;;;20.80;82.80;;;;;;4853820;29;20236;-64
2022/06/27 00:42:37;;;;;;;4.10;3.63;;;20.80;83.10;;;;;;4869520;29;20286;-64
2022/06/27 00:45:03;;;;;;;4.30;3.90;;;20.80;82.70;;;;;;4853064;29;20336;-64
2022/06/27 00:47:29;;;;;;;9.63;4.20;;;20.70;82.80;;;;;;4855017;29;20192;-64
2022/06/27 00:49:55;;;;;;;5.20;4.20;;;20.70;82.90;;;;;;4843835;29;20191;-64
2022/06/27 00:52:20;;;;;;;4.60;3.97;;;20.70;83.00;;;;;;4872542;29;20200;-64
2022/06/27 00:54:48;;;;;;;4.73;4.30;;;20.60;83.10;;;;;;4868901;29;20188;-64
2022/06/27 00:57:15;;;;;;;8.43;4.27;;;20.60;83.20;;;;;;4865667;29;20224;-64
2022/06/27 00:59:41;;;;;;;5.60;4.40;;;20.60;83.20;;;;;;4867032;29;20193;-64
2022/06/27 01:02:07;;;;;;;4.47;3.83;;;20.60;83.30;;;;;;4865847;29;20201;-64
2022/06/27 01:04:35;;;;;;;7.43;3.47;;;20.60;83.40;;;;;;4866831;29;20207;-64
2022/06/27 01:07:01;;;;;;;5.67;3.63;;;20.50;83.20;;;;;;4892371;29;20180;-64
2022/06/27 01:09:27;;;;;;;5.70;3.90;;;20.50;83.30;;;;;;4884199;29;20192;-64
2022/06/27 01:11:52;;;;;;;4.57;3.97;;;20.50;83.30;;;;;;4844344;29;20226;-64
2022/06/27 01:14:19;;;;;;;5.20;4.20;;;20.50;83.50;;;;;;4883602;29;20204;-64
2022/06/27 01:16:45;;;;;;;4.53;4.20;;;20.40;83.40;;;;;;4871923;29;20282;-64
2022/06/27 01:19:13;;;;;;;6.50;4.03;;;20.40;83.50;;;;;;4884633;29;20259;-64
2022/06/27 01:21:45;;;;;;;5.47;4.00;;;20.40;83.40;;;;;;4883830;29;20200;-64
2022/06/27 01:24:10;;;;;;;4.73;3.90;;;20.40;83.50;;;;;;4883173;29;20203;-64
2022/06/27 01:26:36;;;;;;;6.00;3.97;;;20.40;83.60;;;;;;4872580;29;20263;-64
2022/06/27 01:29:03;;;;;;;4.93;3.77;;;20.30;83.70;;;;;;4880794;29;20236;-64
2022/06/27 01:31:30;;;;;;;4.73;3.87;;;20.30;83.60;;;;;;4870785;29;20196;-64
2022/06/27 01:33:57;;;;;;;4.10;3.63;;;20.30;83.50;;;;;;4900004;29;20188;-64
2022/06/27 01:39:07;;;;;;;6.10;4.00;;;20.30;83.60;;;;;;4878824;29;20221;-64
2022/06/27 01:41:33;;;;;;;4.13;3.80;;;20.30;83.60;;;;;;4860710;29;20198;-64
2022/06/27 01:43:59;;;;;;;5.63;3.60;;;20.20;83.80;;;;;;4868351;29;20192;-64
2022/06/27 01:46:36;;;;;;;7.73;3.83;;;20.20;83.80;;;;;;4906535;29;20202;-64
2022/06/27 01:49:02;;;;;;;4.70;3.97;;;20.20;83.70;;;;;;4867993;29;20192;-64
2022/06/27 01:51:28;;;;;;;5.90;3.77;;;20.30;83.90;;;;;;4853777;29;20252;-64
2022/06/27 01:53:53;;;;;;;4.47;4.07;;;20.30;83.70;;;;;;4843768;29;20212;-64
2022/06/27 01:56:19;;;;;;;4.73;4.33;;;20.20;84.00;;;;;;4862443;29;20230;-64
2022/06/27 01:58:44;;;;;;;4.33;3.67;;;20.20;84.00;;;;;;4849811;29;20196;-64
2022/06/27 02:01:10;;;;;;;7.20;4.57;;;20.20;83.90;;;;;;4864259;29;20191;-64
2022/06/27 02:03:36;;;;;;;4.23;3.87;;;20.20;84.00;;;;;;4852352;29;20199;-64
2022/06/27 02:06:02;;;;;;;4.30;4.00;;;20.20;84.00;;;;;;4867261;29;20246;-64
2022/06/27 02:08:28;;;;;;;5.10;3.83;;;20.20;83.90;;;;;;4851624;29;20196;-64
2022/06/27 02:10:53;;;;;;;3.87;3.57;;;20.20;83.80;;;;;;4867846;29;20198;-64
2022/06/27 02:13:19;;;;;;;5.43;4.23;;;20.10;83.80;;;;;;4851935;29;20192;-64
2022/06/27 02:16:06;;;;;;;4.93;4.50;;;20.10;83.90;;;;;;4846036;29;20283;-64
2022/06/27 02:18:33;;;;;;;3.87;3.53;;;20.10;83.80;;;;;;4869065;29;20220;-64
2022/06/27 02:20:59;;;;;;;4.37;3.97;;;20.10;83.90;;;;;;4848729;29;20188;-64
2022/06/27 02:23:26;;;;;;;3.93;3.63;;;20.10;84.00;;;;;;4858187;29;20212;-64
2022/06/27 02:25:52;;;;;;;6.60;3.93;;;20.10;84.00;;;;;;4856194;29;20307;-64
2022/06/27 02:28:20;;;;;;;5.47;3.97;;;20.10;84.20;;;;;;4861917;29;20222;-64
2022/06/27 02:30:46;;;;;;;5.50;4.00;;;20.00;84.10;;;;;;4881976;29;20184;-64
2022/06/27 02:33:12;;;;;;;4.50;4.10;;;20.00;84.10;;;;;;4867570;29;20200;-64
2022/06/27 02:35:39;;;;;;;5.63;4.20;;;20.00;84.10;;;;;;4882501;29;20252;-64
2022/06/27 02:38:09;;;;;;;4.87;4.37;;;20.00;84.20;;;;;;4864236;29;20274;-64
2022/06/27 02:40:36;;;;;;;4.50;4.10;;;20.00;84.30;;;;;;4880199;29;20187;-64
2022/06/27 02:43:03;;;;;;;4.03;3.73;;;19.90;84.30;;;;;;4861497;29;20197;-64
2022/06/27 02:45:32;;;;;;;5.53;4.40;;;19.90;84.30;;;;;;4862057;29;20220;-64
2022/06/27 02:48:01;;;;;;;5.00;4.27;;;19.90;84.20;;;;;;4861490;29;20200;-64
2022/06/27 02:50:29;;;;;;;4.43;4.03;;;19.90;84.30;;;;;;4878123;29;20199;-64
2022/06/27 02:52:58;;;;;;;6.87;4.00;;;19.90;84.30;;;;;;4869249;29;20220;-64
2022/06/27 02:55:28;;;;;;;5.43;4.23;;;19.80;84.40;;;;;;4870837;29;20196;-64
2022/06/27 02:58:12;;;;;;;6.03;4.50;;;19.80;84.40;;;;;;4861880;29;20232;-64
2022/06/27 03:00:43;;;;;;;5.67;4.33;;;19.80;84.50;;;;;;4877745;29;20201;-64
2022/06/27 03:03:12;;;;;;;4.57;4.17;;;19.80;84.60;;;;;;4874784;29;20188;-64
2022/06/27 03:06:02;;;;;;;4.87;4.47;;;19.80;84.60;;;;;;4882398;29;20212;-64
2022/06/27 03:08:40;;;;;;;4.53;3.97;;;19.80;84.50;;;;;;4867698;29;20196;-64
2022/06/27 03:11:06;;;;;;;8.57;5.20;;;19.80;84.60;;;;;;4881641;29;20250;-64
2022/06/27 03:13:33;;;;;;;9.10;4.13;;;19.80;84.60;;;;;;4878865;29;20224;-64
2022/06/27 03:15:59;;;;;;;5.43;4.10;;;19.70;84.50;;;;;;4881942;29;20300;-62
2022/06/27 03:18:25;;;;;;;4.43;4.03;;;19.80;84.50;;;;;;4890044;29;20199;-62
2022/06/27 03:20:50;;;;;;;6.83;4.37;;;19.70;84.60;;;;;;4863132;29;20261;-62
2022/06/27 03:23:16;;;;;;;7.03;4.37;;;19.80;84.70;;;;;;4866394;29;20262;-62
2022/06/27 03:25:42;;;;;;;5.20;4.67;;;19.70;84.80;;;;;;4881421;29;20215;-62
2022/06/27 03:28:08;;;;;;;5.77;4.37;;;19.80;84.90;;;;;;4866456;29;20207;-62
2022/06/27 03:30:34;;;;;;;6.97;4.40;;;19.70;84.80;;;;;;4847003;29;20209;-62
2022/06/27 03:33:00;;;;;;;5.33;4.37;;;19.70;84.70;;;;;;4871075;29;20189;-62
2022/06/27 03:35:25;;;;;;;5.77;4.47;;;19.70;84.80;;;;;;4881618;29;20241;-62
2022/06/27 03:37:52;;;;;;;4.97;4.33;;;19.70;85.20;;;;;;4866444;29;20192;-62
2022/06/27 03:40:17;;;;;;;5.70;4.20;;;19.80;84.90;;;;;;4866721;29;20195;-62
2022/06/27 03:42:43;;;;;;;5.07;4.57;;;19.70;84.80;;;;;;4881361;29;20200;-62
2022/06/27 03:45:10;;;;;;;6.97;4.17;;;19.70;84.70;;;;;;4870552;29;20212;-62
2022/06/27 03:47:57;;;;;;;4.93;4.30;;;19.70;84.80;;;;;;4889640;29;20212;-62
2022/06/27 03:50:24;;;;;;;5.17;4.67;;;19.70;85.00;;;;;;4898286;29;20188;-62
2022/06/27 03:52:51;;;;;;;5.63;5.07;;;19.70;84.80;;;;;;4882524;29;20224;-62
2022/06/27 03:55:17;;;;;;;4.80;4.40;;;19.70;85.10;;;;;;4863496;29;20192;-62
2022/06/27 03:57:59;;;;;;;5.90;4.30;;;19.70;85.10;;;;;;4876062;29;20191;-62
2022/06/27 04:00:32;;;;;;;5.90;4.93;;;19.70;85.20;;;;;;4881838;29;20195;-62
2022/06/27 04:02:59;;;;;;;5.13;4.70;;;19.70;85.20;;;;;;4881162;29;20183;-62
2022/06/27 04:05:25;;;;;;;5.63;4.67;;;19.70;85.30;;;;;;4877770;29;20249;-62
2022/06/27 04:07:51;;;;;;;5.50;4.90;;;19.70;85.40;;;;;;4886722;29;20280;-62
2022/06/27 04:10:16;;;;;;;4.90;4.40;;;19.70;85.50;;;;;;4866509;29;20276;-62
2022/06/27 04:12:42;;;;;;;5.90;3.97;;;19.70;85.30;;;;;;4850761;29;20341;-62
2022/06/27 04:15:10;;;;;;;5.67;4.47;;;19.70;85.40;;;;;;4842088;29;20193;-62
2022/06/27 04:17:36;;;;;;;4.50;4.20;;;19.70;85.60;;;;;;4873298;29;20293;-62
2022/06/27 04:20:02;;;;;;;6.70;4.40;;;19.70;85.50;;;;;;4856951;29;20200;-63
2022/06/27 04:22:28;;;;;;;5.50;5.00;;;19.70;85.50;;;;;;4864662;29;20196;-62
2022/06/27 04:24:58;;;;;;;4.97;4.57;;;19.80;85.40;;;;;;4863505;29;20222;-62
2022/06/27 04:27:24;;;;;;;5.20;4.70;;;19.70;85.20;;;;;;4865179;29;20244;-62
2022/06/27 04:29:50;;;;;;;5.43;4.93;;;19.80;85.40;;;;;;4858738;29;20220;-62
2022/06/27 04:32:21;;;;;;;5.00;4.53;;;19.80;85.30;;;;;;4865862;29;20184;-62
2022/06/27 04:34:48;;;;;;;5.10;4.70;;;19.80;85.40;;;;;;4866226;29;20193;-62
2022/06/27 04:37:15;;;;;;;5.40;4.90;;;19.80;85.40;;;;;;4880298;29;20251;-62
2022/06/27 04:39:42;;;;;;;6.00;4.90;;;19.80;85.60;;;;;;4863665;29;20191;-62
2022/06/27 04:42:08;;;;;;;6.40;4.57;;;19.80;85.70;;;;;;4863322;29;20197;-62
2022/06/27 04:44:36;;;;;;;5.47;4.50;;;19.80;85.60;;;;;;4866722;29;20247;-62
2022/06/27 04:47:04;;;;;;;5.13;4.63;;;19.80;85.70;;;;;;4878349;29;20589;-63
2022/06/27 04:49:30;;;;;;;5.23;4.80;;;19.80;85.70;;;;;;4860680;29;20283;-62
2022/06/27 04:51:56;;;;;;;5.20;4.70;;;19.80;85.70;;;;;;4854621;29;20283;-62
2022/06/27 04:54:22;;;;;;;5.17;4.67;;;19.80;85.70;;;;;;4892987;29;20200;-62
2022/06/27 04:56:48;;;;;;;5.00;4.60;;;19.80;85.80;;;;;;4846491;29;20189;-63
2022/06/27 04:59:15;;;;;;;5.60;5.10;;;19.80;85.80;;;;;;4880128;29;20221;-62
2022/06/27 05:01:41;;;;;;;5.40;4.80;;;19.80;85.80;;;;;;4871221;29;20229;-62
2022/06/27 05:04:06;;;;;;;6.17;5.13;;;19.90;85.90;;;;;;4866731;29;20192;-62
2022/06/27 05:06:32;;;;;;;6.10;5.20;;;19.90;85.90;;;;;;4879658;29;20189;-62
2022/06/27 05:08:58;;;;;;;5.97;4.63;;;19.90;85.80;;;;;;4875873;29;20180;-63
2022/06/27 05:11:24;;;;;;;7.70;5.20;;;19.90;86.00;;;;;;4852352;29;20261;-62
2022/06/27 05:13:50;;;;;;;7.67;5.10;;;19.90;86.20;;;;;;4863742;29;20193;-63
2022/06/27 05:16:19;;;;;;;6.77;5.57;;;19.90;86.10;;;;;;4872659;29;20198;-63
2022/06/27 05:18:45;;;;;;;5.70;5.20;;;19.90;86.30;;;;;;4881923;29;20199;-62
2022/06/27 05:21:11;;;;;;;5.57;4.87;;;19.90;86.30;;;;;;4864036;29;20216;-63
2022/06/27 05:23:37;;;;;;;5.37;4.87;;;20.00;86.30;;;;;;4890501;29;20244;-63
2022/06/27 05:26:04;;;;;;;6.37;5.20;;;20.00;86.50;;;;;;4860638;29;20239;-63
2022/06/27 05:28:30;;;;;;;8.27;5.00;;;20.00;86.50;;;;;;4868585;29;20275;-63
2022/06/27 05:30:56;;;;;;;5.60;5.10;;;20.00;86.40;;;;;;4879963;29;20274;-63
2022/06/27 05:33:25;;;;;;;5.90;5.40;;;20.00;86.50;;;;;;4846845;29;20192;-63
2022/06/27 05:35:52;;;;;;;5.53;5.03;;;20.00;86.50;;;;;;4877966;29;20223;-63
2022/06/27 05:38:18;;;;;;;7.60;5.63;;;20.10;86.50;;;;;;4835917;29;20197;-63
2022/06/27 05:40:45;;;;;;;9.40;5.93;;;20.10;86.60;;;;;;4879251;29;20196;-63
2022/06/27 05:43:14;;;;;;;5.80;5.30;;;20.10;86.20;;;;;;4876800;29;20193;-63
2022/06/27 05:45:40;;;;;;;5.47;4.97;;;20.20;86.10;;;;;;4867604;29;20275;-63
2022/06/27 05:48:07;;;;;;;8.27;5.60;;;20.20;86.20;;;;;;4853402;29;20189;-63
2022/06/27 05:50:33;;;;;;;7.07;5.50;;;20.20;86.20;;;;;;4851160;29;20223;-63
2022/06/27 05:53:00;;;;;;;5.77;5.27;;;20.20;86.10;;;;;;4845763;29;20283;-63
2022/06/27 05:55:28;;;;;;;7.27;4.97;;;20.20;86.20;;;;;;4846014;29;20217;-63
2022/06/27 05:57:57;;;;;;;19.03;8.00;;;20.30;86.40;;;;;;4832925;29;20192;-63
2022/06/27 06:00:24;;;;;;;14.43;8.03;;;20.30;86.40;;;;;;4879078;29;20187;-63
2022/06/27 06:02:52;;;;;;;7.80;6.30;;;20.30;86.50;;;;;;4878028;29;20307;-63
2022/06/27 06:05:18;;;;;;;9.33;5.57;;;20.40;86.30;;;;;;4877701;29;20203;-63
2022/06/27 06:07:45;;;;;;;5.90;5.30;;;20.40;85.90;;;;;;4880684;29;20188;-63
2022/06/27 06:10:11;;;;;;;8.77;5.50;;;20.50;86.40;;;;;;4850317;29;20188;-63
2022/06/27 06:12:37;;;;;;;6.83;5.27;;;20.50;86.20;;;;;;4846414;29;20197;-63
2022/06/27 06:15:04;;;;;;;6.77;6.00;;;20.50;85.90;;;;;;4867689;29;20202;-63
2022/06/27 06:17:34;;;;;;;6.13;5.07;;;20.60;85.30;;;;;;4855792;29;20203;-63
2022/06/27 06:20:01;;;;;;;6.53;5.73;;;20.60;84.90;;;;;;4864182;29;20215;-63
2022/06/27 06:22:27;;;;;;;6.17;5.37;;;20.70;84.20;;;;;;4856308;29;20196;-63
2022/06/27 06:24:54;;;;;;;5.50;5.00;;;20.80;84.20;;;;;;4862837;29;20304;-63
2022/06/27 06:27:21;;;;;;;6.20;5.60;;;20.80;84.30;;;;;;4849725;29;20248;-63
2022/06/27 06:29:47;;;;;;;5.73;5.23;;;20.80;84.80;;;;;;4862528;29;20185;-63
2022/06/27 06:32:13;;;;;;;6.10;5.47;;;20.80;84.80;;;;;;4850169;29;20199;-63
2022/06/27 06:34:40;;;;;;;8.60;6.53;;;20.80;85.40;;;;;;4840686;29;20197;-63
2022/06/27 06:37:06;;;;;;;5.80;5.30;;;20.80;85.30;;;;;;4861282;29;20248;-63
2022/06/27 06:39:32;;;;;;;7.67;5.93;;;20.90;85.70;;;;;;4863981;29;20199;-63
2022/06/27 06:41:58;;;;;;;5.53;5.03;;;20.90;85.10;;;;;;4862243;29;20192;-63
2022/06/27 06:44:24;;;;;;;7.07;6.00;;;20.90;84.90;;;;;;4859522;29;20219;-63
2022/06/27 06:46:55;;;;;;;6.50;4.80;;;20.90;84.50;;;;;;4861567;29;20200;-63
2022/06/27 06:49:21;;;;;;;5.27;4.83;;;21.00;84.30;;;;;;4859300;29;20332;-63
2022/06/27 06:51:48;;;;;;;5.97;5.23;;;21.00;84.30;;;;;;4868968;29;20188;-63
2022/06/27 06:54:20;;;;;;;9.20;5.57;;;21.10;83.80;;;;;;4865155;29;20184;-63
2022/06/27 06:56:49;;;;;;;5.90;5.47;;;21.10;83.80;;;;;;4881337;29;20188;-63
2022/06/27 06:59:17;;;;;;;7.70;5.77;;;21.20;83.40;;;;;;4856955;29;20215;-63
2022/06/27 07:01:43;;;;;;;7.03;5.30;;;21.20;83.80;;;;;;4856694;29;20199;-63
2022/06/27 07:04:11;;;;;;;6.77;5.60;;;21.20;83.60;;;;;;4858532;29;20191;-63
2022/06/27 07:06:38;;;;;;;7.03;5.53;;;21.30;83.80;;;;;;4833189;29;20188;-63
2022/06/27 07:09:04;;;;;;;6.57;5.97;;;21.30;83.80;;;;;;4855669;29;20293;-63
2022/06/27 07:11:35;;;;;;;8.60;5.37;;;21.30;83.60;;;;;;4847361;29;20200;-63
2022/06/27 07:14:01;;;;;;;6.40;5.43;;;21.40;83.10;;;;;;4878526;29;20240;-63
2022/06/27 07:16:26;;;;;;;5.63;5.07;;;21.50;83.30;;;;;;4849038;29;20204;-63
2022/06/27 07:18:56;;;;;;;5.90;5.30;;;21.80;81.70;;;;;;4861375;29;20196;-63
2022/06/27 07:21:23;;;;;;;6.47;5.43;;;21.80;81.50;;;;;;4879596;29;20195;-63
2022/06/27 07:23:50;;;;;;;4.83;4.43;;;21.90;82.10;;;;;;4848506;29;20207;-63
2022/06/27 07:26:17;;;;;;;6.03;5.47;;;21.90;81.50;;;;;;4879869;29;20227;-63
2022/06/27 07:28:43;;;;;;;7.50;4.90;;;22.00;81.40;;;;;;4862191;29;20448;-63
2022/06/27 07:31:11;;;;;;;5.07;4.53;;;22.00;80.80;;;;;;4863771;29;20192;-63
2022/06/27 07:33:38;;;;;;;5.10;4.60;;;22.20;80.00;;;;;;4879960;29;20195;-63
2022/06/27 07:36:06;;;;;;;6.83;4.60;;;22.30;80.10;;;;;;4863619;29;20192;-63
2022/06/27 07:38:37;;;;;;;6.20;5.33;;;22.40;79.70;;;;;;4863974;29;20196;-63
2022/06/27 07:41:06;;;;;;;6.27;4.50;;;22.40;80.60;;;;;;4863341;29;20188;-63
2022/06/27 07:43:33;;;;;;;5.20;4.80;;;22.60;78.50;;;;;;4864438;29;20199;-63
2022/06/27 07:46:01;;;;;;;6.30;4.30;;;22.80;77.30;;;;;;4863866;29;20232;-63
2022/06/27 07:48:28;;;;;;;4.90;4.40;;;22.80;78.60;;;;;;4863819;29;20230;-63
2022/06/27 07:50:56;;;;;;;5.77;5.20;;;22.70;78.80;;;;;;4853605;29;20193;-63
2022/06/27 07:53:22;;;;;;;6.87;5.50;;;22.70;79.60;;;;;;4870608;29;20191;-63
2022/06/27 07:55:52;;;;;;;5.30;4.30;;;22.80;78.70;;;;;;4871946;29;20275;-63
2022/06/27 07:58:23;;;;;;;5.13;4.60;;;22.90;78.60;;;;;;4861494;29;20185;-63
2022/06/27 08:00:49;;;;;;;4.63;4.23;;;22.90;78.80;;;;;;4869244;29;20275;-63
2022/06/27 08:06:02;;;;;;;4.70;4.30;;;22.90;79.70;;;;;;4886750;29;20271;-63
2022/06/27 08:08:28;;;;;;;4.80;4.40;;;22.90;78.20;;;;;;4861683;29;20192;-63
2022/06/27 08:10:55;;;;;;;5.30;4.43;;;23.00;77.90;;;;;;4875905;29;20188;-63
2022/06/27 08:13:21;;;;;;;5.53;4.47;;;23.00;78.40;;;;;;4880511;29;20195;-63
2022/06/27 08:15:48;;;;;;;5.33;4.47;;;23.00;78.40;;;;;;4864325;29;20199;-63
2022/06/27 08:18:17;;;;;;;4.83;4.43;;;23.10;77.20;;;;;;4867652;29;20283;-63
2022/06/27 08:20:45;;;;;;;9.30;4.60;;;23.30;76.70;;;;;;4882378;29;20192;-63
2022/06/27 08:23:15;;;;;;;5.03;4.37;;;23.40;74.90;;;;;;4848897;29;20198;-63
2022/06/27 08:25:42;;;;;;;5.77;4.37;;;23.50;75.90;;;;;;4879630;29;20252;-63
2022/06/27 08:28:12;;;;;;;5.23;4.73;;;23.50;76.00;;;;;;4864845;29;20204;-63
2022/06/27 08:30:38;;;;;;;5.77;4.90;;;23.50;75.90;;;;;;4854356;29;20199;-63
2022/06/27 08:33:04;;;;;;;6.10;4.80;;;23.50;76.60;;;;;;4852788;29;20316;-63
2022/06/27 08:35:31;;;;;;;7.63;4.67;;;23.50;77.50;;;;;;4864620;29;20204;-63
2022/06/27 08:37:58;;;;;;;7.43;4.73;;;23.50;77.50;;;;;;4883410;29;20196;-63
2022/06/27 08:40:25;;;;;;;4.13;3.83;;;23.60;75.10;;;;;;4863026;29;20235;-63
2022/06/27 08:42:52;;;;;;;5.83;4.53;;;23.70;75.40;;;;;;4864312;29;20235;-63
2022/06/27 08:45:20;;;;;;;5.83;5.03;;;23.90;73.70;;;;;;4867777;29;20298;-63
2022/06/27 08:47:46;;;;;;;5.47;4.90;;;24.00;73.80;;;;;;4866947;29;20215;-63
2022/06/27 08:50:14;;;;;;;7.37;5.63;;;24.00;75.10;;;;;;4875266;29;20215;-63
2022/06/27 08:52:40;;;;;;;5.20;4.80;;;24.00;75.50;;;;;;4878091;29;20187;-63
2022/06/27 08:55:08;;;;;;;5.67;5.13;;;24.10;74.30;;;;;;4878665;29;20192;-63
2022/06/27 08:57:36;;;;;;;6.03;5.43;;;24.00;74.50;;;;;;4874669;29;20198;-63
2022/06/27 09:00:06;;;;;;;5.80;5.20;;;24.10;74.70;;;;;;4882831;29;20191;-63
2022/06/27 09:02:44;;;;;;;5.43;4.93;;;24.20;75.30;;;;;;4867248;29;20195;-63
2022/06/27 09:05:19;;;;;;;4.77;4.27;;;24.20;75.50;;;;;;4867880;29;20204;-63
2022/06/27 09:07:50;;;;;;;6.30;4.63;;;24.20;75.80;;;;;;4881392;29;20191;-63
2022/06/27 09:10:25;;;;;;;5.13;4.57;;;24.20;73.40;;;;;;4895577;29;20194;-63
2022/06/27 09:12:55;;;;;;;5.60;5.10;;;24.30;75.90;;;;;;4882879;29;20198;-63
2022/06/27 09:15:24;;;;;;;5.10;4.70;;;24.40;74.60;;;;;;4877286;29;20180;-63
2022/06/27 09:18:04;;;;;;;5.73;4.63;;;24.40;74.60;;;;;;4858468;29;20224;-63
2022/06/27 09:20:54;;;;;;;5.27;4.77;;;24.50;74.30;;;;;;4893156;29;20220;-63
2022/06/27 09:23:31;;;;;;;7.07;4.37;;;24.50;74.50;;;;;;4881104;29;20207;-63
2022/06/27 09:26:06;;;;;;;4.90;4.40;;;24.60;73.50;;;;;;4880838;29;20238;-63
2022/06/27 09:28:56;;;;;;;6.83;4.83;;;24.60;73.80;;;;;;4872350;29;20200;-63
2022/06/27 09:31:28;;;;;;;5.07;4.20;;;24.70;71.80;;;;;;4885113;29;20273;-63
2022/06/27 09:34:23;;;;;;;4.70;4.30;;;24.80;70.90;;;;;;4867523;29;20184;-63
2022/06/27 09:36:50;;;;;;;7.13;4.57;;;24.90;69.60;;;;;;4871564;29;20247;-63
2022/06/27 09:39:28;;;;;;;6.47;4.13;;;24.90;71.90;;;;;;4874548;29;20207;-63
2022/06/27 09:41:58;;;;;;;5.77;3.83;;;25.00;73.00;;;;;;4875446;29;20192;-63
2022/06/27 09:44:45;;;;;;;4.40;4.00;;;25.10;69.90;;;;;;4877891;29;20199;-63
2022/06/27 09:47:24;;;;;;;5.03;4.40;;;25.20;68.90;;;;;;4872304;29;20192;-63
2022/06/27 09:49:52;;;;;;;4.20;3.80;;;25.20;70.90;;;;;;4880344;29;20250;-63
2022/06/27 09:52:25;;;;;;;5.57;4.30;;;25.20;69.80;;;;;;4866234;29;20191;-63
2022/06/27 09:54:52;;;;;;;5.10;3.90;;;25.30;69.30;;;;;;4863758;29;20197;-63
2022/06/27 09:57:20;;;;;;;5.67;4.23;;;25.30;67.50;;;;;;4871211;29;20219;-63
2022/06/27 09:59:50;;;;;;;5.40;3.97;;;25.30;64.80;;;;;;4881412;29;20196;-63
2022/06/27 10:02:18;;;;;;;5.97;4.00;;;25.30;67.70;;;;;;4878317;29;20253;-63
2022/06/27 10:04:44;;;;;;;4.50;3.97;;;25.50;67.40;;;;;;4882071;29;20222;-63
2022/06/27 10:07:12;;;;;;;5.67;3.73;;;25.60;63.80;;;;;;4881136;29;20275;-63
2022/06/27 10:09:40;;;;;;;6.40;4.37;;;25.80;65.80;;;;;;4874510;29;20200;-63
2022/06/27 10:12:24;;;;;;;5.07;4.03;;;25.80;66.60;;;;;;4861844;29;20283;-64
2022/06/27 10:15:12;;;;;;;4.70;4.00;;;25.90;67.40;;;;;;4873811;29;20204;-63
2022/06/27 10:17:41;;;;;;;4.93;4.43;;;25.90;65.40;;;;;;4885527;29;20251;-63
2022/06/27 10:20:21;;;;;;;4.40;4.00;;;25.90;66.90;;;;;;4870459;29;20200;-64
2022/06/27 10:23:03;;;;;;;4.53;4.13;;;25.90;66.90;;;;;;4868976;29;20274;-64
2022/06/27 10:25:31;;;;;;;5.97;4.60;;;26.10;65.60;;;;;;4878391;29;20223;-64
2022/06/27 10:28:09;;;;;;;4.50;4.10;;;26.30;67.30;;;;;;4875995;29;20264;-63
2022/06/27 10:30:36;;;;;;;4.30;3.90;;;26.30;69.20;;;;;;4872160;29;20213;-64
2022/06/27 10:33:22;;;;;;;6.63;4.87;;;26.30;68.60;;;;;;4849916;29;20202;-63
2022/06/27 10:38:48;;;;;;;4.90;4.50;;;26.40;68.90;;;;;;4889703;29;20290;-64
2022/06/27 10:41:19;;;;;;;5.63;4.27;;;26.50;68.70;;;;;;4879521;29;20192;-64
2022/06/27 10:43:47;;;;;;;7.50;4.77;;;26.60;69.90;;;;;;4871470;29;20198;-64
2022/06/27 10:46:13;;;;;;;5.90;4.80;;;26.70;68.30;;;;;;4879418;29;20200;-64
2022/06/27 10:48:49;;;;;;;6.27;5.03;;;26.70;68.00;;;;;;4875777;29;20202;-64
2022/06/27 10:51:30;;;;;;;4.50;4.10;;;26.80;69.10;;;;;;4869618;29;20258;-64
2022/06/27 10:54:04;;;;;;;4.80;4.30;;;26.90;70.90;;;;;;4883102;29;20189;-64
2022/06/27 10:56:37;;;;;;;6.17;4.77;;;27.10;69.30;;;;;;4871668;29;20195;-64
2022/06/27 10:59:14;;;;;;;6.50;4.83;;;27.10;68.00;;;;;;4886583;29;20192;-64
2022/06/27 11:02:04;;;;;;;29.27;26.17;;;27.20;69.70;;;;;;4865358;29;20203;-65
2022/06/27 11:04:38;;;;;;;6.20;4.40;;;27.20;69.70;;;;;;4873361;29;20203;-63
2022/06/27 11:07:08;;;;;;;4.70;4.30;;;27.20;66.00;;;;;;4864323;29;20223;-63
2022/06/27 11:09:43;;;;;;;4.70;3.67;;;27.20;65.30;;;;;;4872329;29;20183;-63
2022/06/27 11:12:10;;;;;;;5.10;4.53;;;27.40;68.20;;;;;;4880719;29;20187;-64
2022/06/27 11:14:49;;;;;;;4.53;4.13;;;27.60;65.80;;;;;;4851469;29;20196;-63
2022/06/27 11:17:32;;;;;;;5.87;4.50;;;27.70;62.00;;;;;;4866776;29;20183;-63
2022/06/27 11:20:30;;;;;;;6.67;4.00;;;27.80;64.30;;;;;;4888374;29;20192;-63
2022/06/27 11:22:59;;;;;;;4.50;4.10;;;27.90;64.50;;;;;;4848453;29;20243;-64
2022/06/27 11:25:28;;;;;;;5.27;4.00;;;28.00;66.50;;;;;;4864563;29;20314;-64
2022/06/27 11:31:57;;;;;;;5.23;3.90;;;28.00;64.50;;;;;;4871542;29;20257;-64
2022/06/27 11:33:35;;;;;;;7.13;4.23;;;28.20;62.20;;;;;;4897120;29;20252;-63
2022/06/27 11:36:02;;;;;;;7.13;3.80;;;28.50;64.00;;;;;;4882114;29;20336;-63
2022/06/27 11:38:30;;;;;;;5.37;4.27;;;28.60;62.20;;;;;;4863688;29;20215;-64
2022/06/27 11:41:23;;;;;;;5.83;4.00;;;28.50;60.50;;;;;;4879411;29;20254;-64
2022/06/27 11:43:57;;;;;;;4.80;3.70;;;28.60;64.20;;;;;;4870099;29;20231;-65
2022/06/27 11:46:40;;;;;;;5.97;4.30;;;28.80;62.80;;;;;;4900654;29;20216;-65
2022/06/27 11:49:12;;;;;;;5.70;4.50;;;28.90;61.40;;;;;;4884918;29;20191;-65
2022/06/27 11:51:40;;;;;;;5.23;4.23;;;29.00;62.10;;;;;;4872032;29;20184;-65
2022/06/27 11:54:14;;;;;;;4.90;3.40;;;29.20;60.00;;;;;;4870811;29;20191;-65
2022/06/27 11:56:43;;;;;;;12.27;4.20;;;29.20;60.80;;;;;;4876399;29;20214;-65
2022/06/27 11:59:11;;;;;;;5.23;4.43;;;29.40;57.90;;;;;;4883692;29;20188;-65
2022/06/27 12:01:56;;;;;;;5.30;4.43;;;29.60;58.60;;;;;;4868653;29;20255;-65
2022/06/27 12:04:29;;;;;;;5.17;4.30;;;30.20;60.50;;;;;;4877995;29;20176;-64
2022/06/27 12:07:04;;;;;;;5.00;3.50;;;30.90;61.40;;;;;;4883612;29;20202;-65
2022/06/27 12:09:30;;;;;;;7.03;3.60;;;31.70;57.30;;;;;;4884353;29;20187;-63
2022/06/27 12:12:02;;;;;;;4.23;3.60;;;32.40;52.10;;;;;;4883447;29;20221;-64
2022/06/27 12:14:30;;;;;;;4.83;3.57;;;33.20;49.90;;;;;;4893578;29;20192;-63
2022/06/27 12:16:59;;;;;;;5.87;3.70;;;33.90;46.90;;;;;;4891267;29;20192;-63
2022/06/27 12:19:27;;;;;;;5.00;4.13;;;34.60;49.30;;;;;;4901964;29;20180;-63
2022/06/27 12:21:53;;;;;;;3.87;3.47;;;35.20;48.30;;;;;;4881909;29;20195;-66
2022/06/27 12:24:19;;;;;;;6.00;3.95;;;35.90;45.60;;;;;;4864918;29;20196;-65
2022/06/27 12:26:45;;;;;;;5.97;3.63;;;36.30;45.50;;;;;;4868296;29;20310;-65
2022/06/27 12:29:12;;;;;;;4.67;3.07;;;36.70;44.60;;;;;;4871694;29;20184;-66
2022/06/27 12:31:39;;;;;;;5.80;3.15;;;37.10;45.70;;;;;;4854313;29;20236;-65
2022/06/27 12:34:05;;;;;;;4.07;3.58;;;37.60;45.20;;;;;;4869207;29;20243;-65
2022/06/27 12:36:31;;;;;;;3.92;3.53;;;37.70;44.00;;;;;;4867820;29;20204;-65
2022/06/27 12:38:58;;;;;;;4.28;3.00;;;37.80;41.40;;;;;;4869049;29;20191;-65
2022/06/27 12:41:24;;;;;;;6.28;3.60;;;38.10;43.40;;;;;;4860140;29;20192;-65
2022/06/27 12:43:50;;;;;;;3.72;3.42;;;38.60;43.40;;;;;;4862931;29;20195;-66
2022/06/27 12:46:17;;;;;;;4.22;3.47;;;38.80;40.90;;;;;;4866918;29;20213;-65
2022/06/27 12:48:43;;;;;;;7.72;3.53;;;39.10;38.40;;;;;;4884686;29;20195;-64
2022/06/27 12:51:09;;;;;;;4.40;3.53;;;39.10;39.40;;;;;;4884324;29;20183;-65
2022/06/27 12:53:35;;;;;;;4.85;3.42;;;39.30;38.70;;;;;;4869246;29;20187;-65
2022/06/27 12:56:03;;;;;;;8.80;4.00;;;39.60;39.30;;;;;;4887070;29;20196;-65
2022/06/27 12:58:30;;;;;;;7.45;3.50;;;39.70;36.00;;;;;;4880669;29;20264;-65
2022/06/27 13:00:56;;;;;;;4.40;2.80;;;39.70;38.10;;;;;;4865488;29;20199;-65
2022/06/27 13:03:22;;;;;;;3.55;3.15;;;39.90;38.70;;;;;;4865048;29;20200;-65
2022/06/27 13:05:48;;;;;;;7.03;3.50;;;40.30;38.80;;;;;;4882446;29;20207;-65